Time;durP1;ratioP1;P1;durP2;ratioP2;P2;SDS_P1;SDS_P2;PMS_P1;PMS_P2;Temp;Humidity;BMP_temperature;BMP_pressure;BME280_temperature;BME280_humidity;BME280_pressure;Samples;Min_cycle;Max_cycle;Signal;HPM_P1;HPM_P2
2023/04/19 00:01:27;;;;;;;8.80;3.40;;;7.60;99.90;;;;;;4977097;28;20038;-68
2023/04/19 00:03:54;;;;;;;4.70;2.83;;;7.70;99.90;;;;;;4973557;28;20041;-67
2023/04/19 00:06:20;;;;;;;4.63;2.80;;;7.70;99.90;;;;;;4979381;28;20701;-67
2023/04/19 00:08:46;;;;;;;4.72;2.63;;;7.70;99.90;;;;;;4973234;28;20039;-67
2023/04/19 00:11:12;;;;;;;7.03;2.50;;;7.70;99.90;;;;;;4976443;28;20030;-67
2023/04/19 00:13:37;;;;;;;8.07;2.78;;;7.70;99.90;;;;;;4974310;28;20460;-66
2023/04/19 00:16:04;;;;;;;5.65;2.42;;;7.70;99.90;;;;;;4974086;28;20034;-67
2023/04/19 00:18:30;;;;;;;7.25;2.90;;;7.70;99.90;;;;;;4977107;28;20041;-67
2023/04/19 00:20:56;;;;;;;9.10;2.92;;;7.80;99.90;;;;;;4976854;28;20039;-67
2023/04/19 00:23:22;;;;;;;5.15;2.20;;;7.70;99.90;;;;;;4962924;28;20058;-67
2023/04/19 00:25:48;;;;;;;7.05;2.55;;;7.70;99.90;;;;;;4975872;28;20691;-67
2023/04/19 00:28:15;;;;;;;6.68;2.92;;;7.70;99.90;;;;;;4976817;28;20470;-68
2023/04/19 00:30:41;;;;;;;4.07;2.75;;;7.70;99.90;;;;;;4975144;28;20042;-67
2023/04/19 00:33:11;;;;;;;3.90;2.58;;;7.80;99.80;;;;;;4962331;28;20158;-67
2023/04/19 00:35:42;;;;;;;5.28;2.90;;;7.80;99.90;;;;;;4976243;28;20038;-67
2023/04/19 00:38:08;;;;;;;5.35;2.88;;;7.70;99.90;;;;;;4975543;28;20026;-67
2023/04/19 00:40:36;;;;;;;5.50;2.60;;;7.70;99.00;;;;;;4975358;28;20034;-67
2023/04/19 00:43:03;;;;;;;4.22;2.22;;;7.70;99.20;;;;;;4974288;28;20041;-67
2023/04/19 00:45:32;;;;;;;7.68;2.20;;;7.70;97.20;;;;;;4955922;28;20034;-67
2023/04/19 00:47:59;;;;;;;3.95;2.40;;;7.80;97.70;;;;;;4962457;28;20038;-67
2023/04/19 00:50:25;;;;;;;4.88;2.55;;;7.80;98.00;;;;;;4952939;28;20491;-67
2023/04/19 00:52:53;;;;;;;4.75;2.28;;;7.90;98.00;;;;;;4980250;28;20026;-67
2023/04/19 00:55:19;;;;;;;5.90;2.28;;;7.90;97.90;;;;;;4961639;28;20034;-67
2023/04/19 00:57:45;;;;;;;7.40;2.67;;;7.90;97.90;;;;;;4962817;28;20029;-67
2023/04/19 01:00:12;;;;;;;3.80;1.67;;;7.90;97.90;;;;;;4980584;28;20762;-67
2023/04/19 01:02:37;;;;;;;4.38;2.10;;;7.90;97.40;;;;;;4956566;28;20062;-67
2023/04/19 01:05:03;;;;;;;3.78;2.08;;;7.90;96.60;;;;;;4977669;28;20061;-67
2023/04/19 01:07:29;;;;;;;7.95;2.00;;;7.90;95.90;;;;;;4958568;28;20508;-67
2023/04/19 01:09:55;;;;;;;4.10;1.85;;;7.90;95.00;;;;;;4963406;28;20030;-67
2023/04/19 01:12:21;;;;;;;4.35;2.17;;;8.00;95.60;;;;;;4974919;28;20027;-67
2023/04/19 01:14:47;;;;;;;3.75;1.73;;;8.00;95.60;;;;;;4959305;28;20026;-68
2023/04/19 01:17:17;;;;;;;5.00;1.83;;;8.00;94.20;;;;;;4966199;28;20069;-68
2023/04/19 01:19:43;;;;;;;5.53;2.03;;;8.00;94.50;;;;;;4972695;28;20121;-67
2023/04/19 01:22:14;;;;;;;4.82;1.60;;;8.00;95.10;;;;;;4966441;28;20820;-67
2023/04/19 01:24:40;;;;;;;1.98;1.50;;;8.10;94.80;;;;;;4976236;28;20042;-67
2023/04/19 01:27:07;;;;;;;4.80;2.10;;;8.00;91.40;;;;;;4979255;28;20109;-67
2023/04/19 01:29:34;;;;;;;6.55;2.20;;;8.10;92.90;;;;;;4978138;28;20030;-66
2023/04/19 01:32:00;;;;;;;4.05;1.70;;;8.00;92.70;;;;;;4959170;28;20052;-67
2023/04/19 01:34:26;;;;;;;2.75;1.75;;;8.00;93.60;;;;;;4965400;28;20057;-68
2023/04/19 01:36:52;;;;;;;3.88;1.88;;;8.00;91.50;;;;;;4976101;28;20070;-67
2023/04/19 01:39:17;;;;;;;3.25;1.60;;;8.00;92.50;;;;;;4980179;28;20102;-67
2023/04/19 01:41:43;;;;;;;2.95;1.77;;;8.00;92.80;;;;;;4964430;28;20485;-67
2023/04/19 01:44:09;;;;;;;4.80;1.95;;;8.10;91.60;;;;;;4963133;28;20023;-66
2023/04/19 01:46:37;;;;;;;4.72;1.80;;;8.00;91.00;;;;;;4979614;28;20110;-66
2023/04/19 01:49:03;;;;;;;2.90;1.63;;;8.10;91.70;;;;;;4961354;28;20031;-66
2023/04/19 01:51:29;;;;;;;2.63;1.50;;;8.10;91.20;;;;;;4966594;28;20418;-67
2023/04/19 01:53:55;;;;;;;2.53;1.65;;;8.10;91.80;;;;;;4977355;28;20038;-67
2023/04/19 01:56:22;;;;;;;4.35;1.60;;;8.00;92.60;;;;;;4961104;28;20398;-67
2023/04/19 01:58:47;;;;;;;2.15;1.73;;;8.00;93.40;;;;;;4958811;28;20034;-67
2023/04/19 02:01:13;;;;;;;2.60;1.65;;;7.90;93.50;;;;;;4958623;28;20046;-66
2023/04/19 02:03:39;;;;;;;4.38;2.05;;;7.80;93.50;;;;;;4979728;28;20042;-66
2023/04/19 02:06:09;;;;;;;3.45;1.70;;;7.70;93.30;;;;;;4965548;28;20038;-66
2023/04/19 02:08:35;;;;;;;4.70;1.80;;;7.60;93.50;;;;;;4977147;28;20035;-66
2023/04/19 02:11:08;;;;;;;4.97;1.70;;;7.50;93.10;;;;;;4960037;28;20073;-66
2023/04/19 02:13:34;;;;;;;3.75;1.77;;;7.30;93.80;;;;;;4958222;28;20026;-66
2023/04/19 02:16:01;;;;;;;3.60;1.80;;;7.20;94.30;;;;;;4960015;28;20036;-66
2023/04/19 02:18:31;;;;;;;9.57;1.83;;;7.10;94.40;;;;;;4976303;28;20076;-67
2023/04/19 02:20:58;;;;;;;3.55;1.95;;;7.00;94.80;;;;;;4959084;28;20738;-66
2023/04/19 02:23:24;;;;;;;3.05;1.58;;;6.90;95.10;;;;;;4963109;28;20420;-66
2023/04/19 02:25:50;;;;;;;5.97;2.08;;;6.90;95.20;;;;;;4963486;28;20555;-67
2023/04/19 02:28:16;;;;;;;2.88;1.83;;;6.80;94.30;;;;;;4977578;28;20620;-66
2023/04/19 02:30:43;;;;;;;3.25;2.30;;;6.70;94.90;;;;;;4963314;28;20061;-66
2023/04/19 02:33:09;;;;;;;6.80;1.90;;;6.70;95.50;;;;;;4978641;28;20441;-66
2023/04/19 02:35:34;;;;;;;4.00;1.90;;;6.60;95.60;;;;;;4960909;28;20038;-66
2023/04/19 02:38:02;;;;;;;6.22;1.83;;;6.50;96.00;;;;;;4963893;28;20577;-66
2023/04/19 02:40:28;;;;;;;4.80;1.63;;;6.50;95.30;;;;;;4964196;28;20057;-65
2023/04/19 02:42:54;;;;;;;5.22;1.70;;;6.40;95.60;;;;;;4977208;28;20398;-66
2023/04/19 02:45:20;;;;;;;4.20;1.70;;;6.30;95.90;;;;;;4976766;28;20046;-66
2023/04/19 02:47:46;;;;;;;3.92;2.17;;;6.20;96.20;;;;;;4972393;28;20115;-67
2023/04/19 02:50:13;;;;;;;3.00;1.83;;;6.20;96.60;;;;;;4978909;28;20791;-66
2023/04/19 02:52:45;;;;;;;4.38;1.58;;;6.10;96.80;;;;;;4959291;28;20030;-66
2023/04/19 02:55:11;;;;;;;4.30;2.08;;;6.10;97.20;;;;;;4980109;28;20443;-66
2023/04/19 02:57:37;;;;;;;5.35;1.90;;;6.00;97.20;;;;;;4957403;28;20094;-66
2023/04/19 03:00:05;;;;;;;7.50;2.42;;;6.00;97.10;;;;;;4959281;28;20517;-66
2023/04/19 03:02:32;;;;;;;4.43;2.13;;;5.90;97.50;;;;;;4959144;28;20126;-65
2023/04/19 03:04:58;;;;;;;2.47;1.90;;;5.80;97.30;;;;;;4956210;28;20149;-67
2023/04/19 03:07:25;;;;;;;2.83;1.83;;;5.80;97.70;;;;;;4979515;28;20026;-66
2023/04/19 03:09:50;;;;;;;4.22;2.08;;;5.70;98.00;;;;;;4973848;28;20137;-66
2023/04/19 03:12:18;;;;;;;4.53;2.00;;;5.70;98.20;;;;;;4959807;28;20104;-66
2023/04/19 03:14:44;;;;;;;8.68;2.22;;;5.70;98.50;;;;;;4956378;28;20035;-66
2023/04/19 03:17:10;;;;;;;3.63;2.05;;;5.70;98.70;;;;;;4964023;28;20038;-66
2023/04/19 03:19:36;;;;;;;3.22;2.17;;;5.60;98.90;;;;;;4959421;28;20442;-66
2023/04/19 03:22:02;;;;;;;2.55;1.85;;;5.50;98.90;;;;;;4974416;28;20394;-66
2023/04/19 03:24:30;;;;;;;3.65;2.05;;;5.50;99.00;;;;;;4963650;28;20036;-66
2023/04/19 03:27:00;;;;;;;4.50;1.75;;;5.50;99.10;;;;;;4957326;28;20034;-66
2023/04/19 03:29:28;;;;;;;4.32;2.40;;;5.40;99.10;;;;;;4959159;28;20079;-65
2023/04/19 03:32:01;;;;;;;4.70;2.08;;;5.40;99.30;;;;;;4958527;28;20037;-66
2023/04/19 03:34:28;;;;;;;4.05;1.95;;;5.30;99.30;;;;;;4956836;28;20089;-68
2023/04/19 03:36:54;;;;;;;4.28;2.00;;;5.20;99.30;;;;;;4961597;28;20042;-66
2023/04/19 03:39:20;;;;;;;4.60;2.08;;;5.20;99.80;;;;;;4962812;28;20034;-69
2023/04/19 03:41:49;;;;;;;4.82;2.20;;;5.20;99.70;;;;;;4964222;28;20026;-66
2023/04/19 03:44:23;;;;;;;3.45;1.95;;;5.10;99.90;;;;;;4959314;28;20418;-66
2023/04/19 03:46:49;;;;;;;5.45;2.00;;;5.10;99.70;;;;;;4957031;28;20023;-66
2023/04/19 03:49:18;;;;;;;5.78;2.22;;;5.00;99.70;;;;;;4963576;28;20030;-66
2023/04/19 03:51:50;;;;;;;4.40;1.88;;;5.00;99.80;;;;;;4955250;28;20438;-66
2023/04/19 03:54:15;;;;;;;4.20;1.88;;;4.90;99.60;;;;;;4963400;28;20030;-69
2023/04/19 03:56:41;;;;;;;5.07;2.42;;;4.90;99.90;;;;;;4971979;28;20023;-68
2023/04/19 03:59:08;;;;;;;6.97;2.00;;;4.90;99.90;;;;;;4979390;28;20072;-68
2023/04/19 04:01:40;;;;;;;2.90;1.65;;;4.80;99.90;;;;;;4956465;28;20037;-68
2023/04/19 04:04:10;;;;;;;7.30;2.33;;;4.80;99.90;;;;;;4963477;28;20035;-68
2023/04/19 04:06:36;;;;;;;4.22;2.20;;;4.80;99.90;;;;;;4957984;28;20046;-68
2023/04/19 04:09:02;;;;;;;5.07;2.50;;;4.70;99.90;;;;;;4973711;28;20038;-68
2023/04/19 04:11:29;;;;;;;2.60;2.00;;;4.70;99.90;;;;;;4962912;28;20117;-68
2023/04/19 04:13:56;;;;;;;3.20;2.05;;;4.70;99.90;;;;;;4955377;28;20031;-68
2023/04/19 04:16:26;;;;;;;2.75;1.73;;;4.70;99.90;;;;;;4955258;28;20085;-68
2023/04/19 04:18:53;;;;;;;4.25;2.10;;;4.60;99.90;;;;;;4957734;28;20462;-68
2023/04/19 04:21:20;;;;;;;2.95;1.70;;;4.60;99.90;;;;;;4956194;28;20418;-68
2023/04/19 04:23:48;;;;;;;6.15;2.15;;;4.60;99.90;;;;;;4959413;28;20490;-68
2023/04/19 04:26:29;;;;;;;5.30;1.80;;;4.60;99.90;;;;;;4958419;28;20038;-68
2023/04/19 04:29:18;;;;;;;4.72;1.67;;;4.50;99.90;;;;;;4969420;28;20038;-68
2023/04/19 04:31:44;;;;;;;5.28;2.28;;;4.50;99.90;;;;;;4953778;28;20522;-68
2023/04/19 04:34:10;;;;;;;4.18;1.90;;;4.50;99.90;;;;;;4962484;28;20026;-68
2023/04/19 04:36:44;;;;;;;4.85;2.00;;;4.50;99.90;;;;;;4955236;28;20023;-68
2023/04/19 04:39:11;;;;;;;4.72;2.05;;;4.50;99.90;;;;;;4959184;28;20022;-67
2023/04/19 04:41:40;;;;;;;2.42;1.65;;;4.50;99.90;;;;;;4974771;28;20173;-68
2023/04/19 04:44:07;;;;;;;2.92;1.65;;;4.50;99.90;;;;;;4973467;28;21398;-68
2023/04/19 04:46:34;;;;;;;3.40;1.88;;;4.50;99.90;;;;;;4960696;28;20062;-68
2023/04/19 04:49:01;;;;;;;6.47;2.28;;;4.50;99.90;;;;;;4956375;28;20038;-68
2023/04/19 04:51:27;;;;;;;2.58;1.67;;;4.50;99.90;;;;;;4975767;28;20030;-68
2023/04/19 04:53:55;;;;;;;5.90;2.45;;;4.60;99.90;;;;;;4955720;28;20062;-68
2023/04/19 04:56:22;;;;;;;7.10;1.98;;;4.60;99.90;;;;;;4955369;28;20022;-66
2023/04/19 04:58:47;;;;;;;4.47;2.22;;;4.60;99.90;;;;;;4957131;28;20149;-68
2023/04/19 05:01:22;;;;;;;3.42;2.08;;;4.60;99.90;;;;;;4960937;28;20752;-68
2023/04/19 05:03:48;;;;;;;2.78;1.70;;;4.60;99.90;;;;;;4957801;28;20881;-68
2023/04/19 05:06:17;;;;;;;6.40;2.08;;;4.70;99.90;;;;;;4961484;28;20136;-68
2023/04/19 05:08:44;;;;;;;2.65;1.65;;;4.70;99.90;;;;;;4957149;28;20450;-66
2023/04/19 05:11:19;;;;;;;4.43;2.15;;;4.80;99.90;;;;;;4962369;28;20027;-68
2023/04/19 05:13:45;;;;;;;4.88;2.15;;;4.80;99.90;;;;;;4955145;28;20023;-68
2023/04/19 05:16:11;;;;;;;8.18;2.45;;;4.90;99.90;;;;;;4975922;28;20105;-68
2023/04/19 05:18:40;;;;;;;3.08;2.30;;;5.00;99.90;;;;;;4952742;28;20023;-68
2023/04/19 05:21:09;;;;;;;3.75;2.30;;;5.10;99.90;;;;;;4956504;28;20065;-68
2023/04/19 05:23:36;;;;;;;2.17;1.52;;;5.10;99.90;;;;;;4954725;28;20450;-68
2023/04/19 05:26:03;;;;;;;5.50;2.20;;;5.20;99.90;;;;;;4961832;28;20129;-68
2023/04/19 05:28:29;;;;;;;8.63;2.40;;;5.30;99.90;;;;;;4957198;28;20466;-68
2023/04/19 05:31:05;;;;;;;5.53;2.50;;;5.40;99.90;;;;;;4961754;28;20060;-68
2023/04/19 05:33:38;;;;;;;4.43;2.17;;;5.60;99.90;;;;;;4957394;28;20041;-68
2023/04/19 05:36:04;;;;;;;4.65;1.98;;;5.70;99.90;;;;;;4954481;28;20031;-68
2023/04/19 05:38:29;;;;;;;3.28;1.85;;;5.90;99.90;;;;;;4981262;28;20033;-68
2023/04/19 05:40:58;;;;;;;2.47;1.90;;;6.10;99.90;;;;;;4961784;28;20034;-66
2023/04/19 05:43:24;;;;;;;3.08;1.88;;;6.50;99.90;;;;;;4975604;28;20030;-68
2023/04/19 05:45:50;;;;;;;5.50;1.75;;;6.80;99.90;;;;;;4959292;28;20034;-68
2023/04/19 05:48:16;;;;;;;5.63;1.98;;;7.10;99.90;;;;;;4965965;28;20924;-68
2023/04/19 05:50:41;;;;;;;4.30;2.05;;;7.50;99.90;;;;;;4979461;28;20042;-68
2023/04/19 05:53:28;;;;;;;8.57;3.25;;;8.00;99.20;;;;;;4960935;28;20026;-68
2023/04/19 05:55:55;;;;;;;6.43;1.88;;;8.80;97.20;;;;;;4965909;28;20769;-67
2023/04/19 05:58:22;;;;;;;5.53;2.00;;;9.50;95.90;;;;;;4965694;28;20033;-68
2023/04/19 06:00:48;;;;;;;4.38;1.60;;;10.30;94.40;;;;;;4976320;28;20093;-68
2023/04/19 06:03:17;;;;;;;3.83;1.52;;;11.00;92.50;;;;;;4965897;28;20149;-68
2023/04/19 06:05:43;;;;;;;4.63;1.70;;;11.70;91.00;;;;;;4963840;28;20027;-68
2023/04/19 06:08:09;;;;;;;3.22;1.70;;;12.30;87.90;;;;;;4967161;28;20030;-68
2023/04/19 06:10:35;;;;;;;3.63;1.55;;;13.00;83.30;;;;;;4976672;28;20030;-68
2023/04/19 06:13:01;;;;;;;2.70;1.30;;;13.70;79.40;;;;;;4959951;28;20035;-66
2023/04/19 06:15:29;;;;;;;3.75;1.70;;;14.30;74.20;;;;;;4959208;28;20031;-66
2023/04/19 06:17:55;;;;;;;4.15;1.45;;;14.90;69.70;;;;;;4962939;28;20038;-67
2023/04/19 06:20:21;;;;;;;2.95;1.25;;;15.30;67.40;;;;;;4979332;28;20044;-67
2023/04/19 06:22:47;;;;;;;3.47;1.33;;;15.70;65.70;;;;;;4973251;28;20151;-67
2023/04/19 06:25:14;;;;;;;2.63;1.25;;;16.30;63.60;;;;;;4964397;28;20882;-67
2023/04/19 06:27:39;;;;;;;4.28;1.30;;;16.70;60.80;;;;;;4973954;28;20773;-67
2023/04/19 06:30:06;;;;;;;4.22;1.25;;;17.20;57.70;;;;;;4976096;28;20030;-66
2023/04/19 06:32:32;;;;;;;1.60;1.00;;;17.50;56.00;;;;;;4977714;28;20042;-66
2023/04/19 06:34:58;;;;;;;1.80;1.00;;;17.60;55.90;;;;;;4973617;28;20030;-66
2023/04/19 06:37:24;;;;;;;2.38;1.10;;;17.50;55.60;;;;;;4979843;28;20784;-66
2023/04/19 06:39:49;;;;;;;3.17;1.20;;;17.50;54.80;;;;;;4973241;28;20062;-65
2023/04/19 06:42:18;;;;;;;3.10;1.10;;;17.70;54.20;;;;;;4980645;28;20038;-67
2023/04/19 06:44:44;;;;;;;4.40;1.35;;;18.00;52.50;;;;;;4974624;28;20035;-68
2023/04/19 06:47:10;;;;;;;4.00;1.40;;;18.30;52.80;;;;;;4978015;28;20073;-67
2023/04/19 06:49:35;;;;;;;2.20;1.20;;;18.70;51.50;;;;;;4976101;28;20045;-66
2023/04/19 06:52:01;;;;;;;2.90;1.27;;;18.60;50.80;;;;;;4976401;28;20037;-68
2023/04/19 06:54:27;;;;;;;5.78;1.27;;;18.40;51.20;;;;;;4979909;28;20038;-65
2023/04/19 06:56:53;;;;;;;1.60;0.90;;;18.30;50.90;;;;;;4978227;28;20022;-65
2023/04/19 06:59:19;;;;;;;3.67;1.17;;;18.20;51.30;;;;;;4977640;28;20034;-67
2023/04/19 07:01:46;;;;;;;3.30;1.23;;;18.10;50.80;;;;;;4974806;28;20034;-66
2023/04/19 07:04:12;;;;;;;3.20;1.48;;;18.10;50.30;;;;;;4974103;28;20041;-65
2023/04/19 07:06:39;;;;;;;3.95;1.08;;;18.00;51.30;;;;;;4977415;28;20092;-67
2023/04/19 07:09:06;;;;;;;3.38;1.40;;;17.70;51.90;;;;;;4974706;28;21861;-67
2023/04/19 07:11:32;;;;;;;3.13;1.42;;;17.40;53.10;;;;;;4976540;28;20117;-67
2023/04/19 07:14:00;;;;;;;5.00;1.70;;;17.20;53.20;;;;;;4976906;28;20053;-67
2023/04/19 07:16:26;;;;;;;4.15;1.35;;;17.30;53.50;;;;;;4977068;28;20457;-65
2023/04/19 07:18:52;;;;;;;5.72;1.98;;;17.10;52.90;;;;;;4975330;28;20097;-67
2023/04/19 07:21:18;;;;;;;2.00;1.10;;;17.20;52.80;;;;;;4977780;28;20788;-67
2023/04/19 07:23:44;;;;;;;2.53;1.45;;;17.30;53.00;;;;;;4979520;28;20038;-67
2023/04/19 07:26:10;;;;;;;3.17;1.13;;;17.90;52.40;;;;;;4974798;28;20420;-67
2023/04/19 07:28:35;;;;;;;2.05;1.00;;;18.40;52.10;;;;;;4976515;28;20039;-65
2023/04/19 07:31:01;;;;;;;2.78;1.00;;;18.70;51.00;;;;;;4975199;28;20408;-63
2023/04/19 07:33:27;;;;;;;3.92;1.63;;;19.20;48.60;;;;;;4974287;28;20041;-65
2023/04/19 07:35:53;;;;;;;3.88;1.25;;;19.10;48.90;;;;;;4975682;28;20123;-67
2023/04/19 07:38:19;;;;;;;6.75;1.88;;;18.90;49.40;;;;;;4974259;28;20028;-68
2023/04/19 07:40:45;;;;;;;2.78;1.40;;;18.60;48.80;;;;;;4975016;28;20038;-66
2023/04/19 07:43:10;;;;;;;2.53;1.35;;;18.50;50.80;;;;;;4975704;28;20034;-66
2023/04/19 07:45:36;;;;;;;3.92;1.50;;;18.50;49.60;;;;;;4976588;28;20506;-67
2023/04/19 07:48:02;;;;;;;3.65;1.23;;;18.50;51.30;;;;;;4980892;28;20046;-67
2023/04/19 07:50:28;;;;;;;2.28;0.95;;;18.40;49.60;;;;;;4977776;28;20042;-67
2023/04/19 07:52:54;;;;;;;4.70;1.60;;;18.40;49.90;;;;;;4976807;28;20150;-67
2023/04/19 07:55:20;;;;;;;5.88;2.03;;;18.30;50.00;;;;;;4962905;28;20818;-68
2023/04/19 07:57:47;;;;;;;2.33;1.30;;;18.30;49.30;;;;;;4975974;28;20105;-68
2023/04/19 08:00:17;;;;;;;3.15;1.38;;;18.00;47.00;;;;;;4972064;28;20904;-67
2023/04/19 08:02:45;;;;;;;2.15;1.30;;;17.70;48.60;;;;;;4974359;28;20065;-67
2023/04/19 08:05:12;;;;;;;4.70;1.55;;;17.60;48.50;;;;;;4970530;28;20121;-67
2023/04/19 08:07:38;;;;;;;3.58;1.40;;;17.60;50.40;;;;;;4970258;28;20038;-67
2023/04/19 08:10:06;;;;;;;3.65;1.33;;;17.70;50.70;;;;;;4974998;28;20177;-67
2023/04/19 08:12:32;;;;;;;2.67;1.30;;;17.90;50.30;;;;;;4963404;28;20035;-64
2023/04/19 08:14:58;;;;;;;3.05;1.20;;;18.00;48.30;;;;;;4966053;28;20868;-66
2023/04/19 08:17:23;;;;;;;2.58;1.27;;;18.10;47.70;;;;;;4972180;28;20066;-68
2023/04/19 08:19:49;;;;;;;1.50;1.05;;;17.90;46.80;;;;;;4971632;28;20475;-65
2023/04/19 08:22:16;;;;;;;2.53;1.20;;;18.00;48.70;;;;;;4967399;28;20108;-65
2023/04/19 08:24:43;;;;;;;5.90;1.30;;;18.10;48.20;;;;;;4967332;28;20034;-67
2023/04/19 08:27:11;;;;;;;3.53;1.40;;;17.80;48.90;;;;;;4976132;28;20049;-66
2023/04/19 08:29:37;;;;;;;3.78;1.40;;;17.40;49.80;;;;;;4974164;28;20570;-66
2023/04/19 08:32:04;;;;;;;1.67;1.13;;;17.30;50.60;;;;;;4971275;28;20027;-67
2023/04/19 08:34:30;;;;;;;1.88;1.25;;;17.40;48.00;;;;;;4972537;28;20027;-66
2023/04/19 08:36:56;;;;;;;3.05;1.30;;;17.60;48.50;;;;;;4973455;28;20074;-66
2023/04/19 08:39:22;;;;;;;2.83;1.50;;;17.80;47.20;;;;;;4974044;28;20026;-66
2023/04/19 08:41:48;;;;;;;3.13;1.38;;;17.90;48.60;;;;;;4966655;28;20039;-66
2023/04/19 08:44:34;;;;;;;2.97;1.50;;;18.00;47.80;;;;;;4971765;28;20035;-63
2023/04/19 08:47:03;;;;;;;4.73;1.67;;;18.20;48.10;;;;;;4972460;28;20038;-67
2023/04/19 08:49:30;;;;;;;3.35;1.20;;;18.10;47.60;;;;;;4975234;28;20042;-65
2023/04/19 08:52:01;;;;;;;3.05;1.33;;;17.90;49.60;;;;;;4966807;28;20035;-64
2023/04/19 08:54:34;;;;;;;4.40;1.48;;;18.10;48.70;;;;;;4971339;28;20027;-67
2023/04/19 08:57:04;;;;;;;6.20;1.67;;;18.50;46.40;;;;;;4969719;28;20033;-67
2023/04/19 08:59:36;;;;;;;4.35;1.58;;;19.00;46.60;;;;;;4975956;28;20034;-66
2023/04/19 09:02:25;;;;;;;1.98;1.20;;;19.60;41.90;;;;;;4972895;28;20114;-67
2023/04/19 09:04:51;;;;;;;;;;;20.30;44.60;;;;;;4971758;28;20069;-65
2023/04/19 09:07:30;;;;;;;3.20;1.20;;;20.60;43.10;;;;;;4973230;28;20033;-65
2023/04/19 09:10:15;;;;;;;4.70;1.70;;;20.80;41.20;;;;;;4968637;28;20125;-65
2023/04/19 09:12:42;;;;;;;2.53;1.50;;;20.60;42.90;;;;;;4976906;28;20050;-66
2023/04/19 09:15:09;;;;;;;2.97;1.75;;;20.30;43.10;;;;;;4980054;28;20066;-65
2023/04/19 09:17:36;;;;;;;2.65;1.40;;;19.80;43.10;;;;;;4978155;28;20048;-66
2023/04/19 09:20:03;;;;;;;4.45;1.70;;;19.30;44.70;;;;;;4981303;28;20133;-66
2023/04/19 09:22:30;;;;;;;3.00;1.83;;;19.00;45.00;;;;;;4973233;28;20054;-66
2023/04/19 09:24:57;;;;;;;3.22;1.75;;;18.80;46.00;;;;;;4980225;28;20035;-66
2023/04/19 09:27:36;;;;;;;2.00;1.30;;;19.10;46.60;;;;;;4977291;28;20038;-66
2023/04/19 09:30:03;;;;;;;2.88;1.38;;;19.10;43.60;;;;;;4973916;28;20518;-66
2023/04/19 09:32:47;;;;;;;3.75;1.60;;;19.00;45.40;;;;;;4977727;28;20030;-67
2023/04/19 09:35:13;;;;;;;5.60;1.77;;;18.80;45.80;;;;;;4976537;28;20774;-66
2023/04/19 09:37:40;;;;;;;3.88;1.90;;;18.70;44.60;;;;;;4968789;28;20046;-66
2023/04/19 09:40:26;;;;;;;5.03;1.92;;;18.40;45.30;;;;;;4972875;28;20035;-66
2023/04/19 09:42:53;;;;;;;8.48;1.52;;;18.20;46.60;;;;;;4974689;28;20069;-66
2023/04/19 09:45:18;;;;;;;2.58;1.67;;;17.90;46.10;;;;;;4980931;28;20105;-66
2023/04/19 09:47:44;;;;;;;3.13;1.65;;;17.50;47.60;;;;;;4972158;28;20743;-66
2023/04/19 09:50:10;;;;;;;6.03;1.70;;;17.20;48.00;;;;;;4978720;28;20123;-66
2023/04/19 09:52:37;;;;;;;4.45;1.63;;;16.90;49.20;;;;;;4978239;28;20042;-66
2023/04/19 09:55:07;;;;;;;4.20;1.63;;;17.00;49.50;;;;;;4974642;28;20059;-67
2023/04/19 09:57:33;;;;;;;4.78;1.80;;;17.60;50.40;;;;;;4969920;28;20173;-67
2023/04/19 10:00:00;;;;;;;2.92;1.85;;;18.00;48.40;;;;;;4981069;28;20035;-67
2023/04/19 10:02:33;;;;;;;3.33;1.67;;;18.40;46.10;;;;;;4979808;28;20160;-66
2023/04/19 10:04:59;;;;;;;3.45;1.52;;;18.90;45.30;;;;;;4971182;28;20066;-66
2023/04/19 10:07:26;;;;;;;3.90;1.77;;;19.10;44.30;;;;;;4963394;28;20111;-66
2023/04/19 10:09:55;;;;;;;3.53;1.90;;;19.20;43.20;;;;;;4977842;28;20085;-66
2023/04/19 10:12:25;;;;;;;2.65;1.50;;;18.90;41.90;;;;;;4977005;28;20149;-66
2023/04/19 10:14:57;;;;;;;3.83;1.75;;;18.60;45.30;;;;;;4971902;28;20046;-67
2023/04/19 10:17:24;;;;;;;3.28;1.90;;;18.50;43.50;;;;;;4971022;28;20030;-66
2023/04/19 10:20:16;;;;;;;4.22;1.58;;;18.50;43.40;;;;;;4973886;28;20034;-70
2023/04/19 10:22:42;;;;;;;4.45;1.45;;;18.30;43.30;;;;;;4976974;28;20053;-66
2023/04/19 10:25:15;;;;;;;5.07;1.98;;;18.00;43.70;;;;;;4971195;28;20101;-66
2023/04/19 10:27:47;;;;;;;4.60;1.48;;;17.90;46.10;;;;;;4972534;28;20109;-67
2023/04/19 10:30:26;;;;;;;3.65;2.00;;;17.90;44.70;;;;;;4974901;28;20030;-66
2023/04/19 10:33:01;;;;;;;3.20;1.83;;;17.80;46.70;;;;;;4972967;28;20042;-67
2023/04/19 10:35:36;;;;;;;3.50;1.80;;;17.50;44.30;;;;;;4973758;28;20034;-67
2023/04/19 10:38:18;;;;;;;4.70;2.00;;;17.50;44.60;;;;;;4974127;28;20088;-67
2023/04/19 10:40:59;;;;;;;4.60;1.80;;;17.80;43.70;;;;;;4971711;28;20031;-67
2023/04/19 10:43:35;;;;;;;5.30;2.33;;;18.50;43.50;;;;;;4974642;28;20487;-67
2023/04/19 10:46:05;;;;;;;6.38;1.60;;;18.90;41.40;;;;;;4954234;28;20129;-67
2023/04/19 10:48:32;;;;;;;4.40;1.80;;;19.20;39.70;;;;;;4976228;28;20031;-67
2023/04/19 10:51:09;;;;;;;3.65;2.00;;;19.70;39.80;;;;;;4969105;28;20101;-66
2023/04/19 10:53:47;;;;;;;5.53;1.80;;;19.60;42.30;;;;;;4976582;28;20835;-67
2023/04/19 10:56:16;;;;;;;2.33;1.60;;;19.20;42.20;;;;;;4976740;28;20105;-67
2023/04/19 10:59:00;;;;;;;5.57;1.83;;;18.70;42.20;;;;;;4973878;28;20491;-67
2023/04/19 11:01:44;;;;;;;6.93;2.05;;;18.20;42.80;;;;;;4976492;28;20118;-67
2023/04/19 11:04:10;;;;;;;5.50;2.33;;;17.90;45.40;;;;;;4972748;28;20542;-65
2023/04/19 11:06:38;;;;;;;4.97;1.88;;;17.80;43.10;;;;;;4975824;28;20034;-66
2023/04/19 11:09:09;;;;;;;4.20;1.75;;;17.70;45.00;;;;;;4978806;28;20044;-67
2023/04/19 11:11:35;;;;;;;5.95;2.20;;;17.40;44.60;;;;;;4957041;28;20097;-65
2023/04/19 11:14:03;;;;;;;3.35;2.00;;;17.00;44.00;;;;;;4969139;28;20904;-66
2023/04/19 11:16:29;;;;;;;3.50;2.03;;;16.60;46.00;;;;;;4978954;28;20063;-66
2023/04/19 11:18:55;;;;;;;5.65;2.00;;;16.50;44.90;;;;;;4972505;28;20045;-65
2023/04/19 11:21:22;;;;;;;4.60;2.20;;;16.20;46.50;;;;;;4972608;28;20486;-65
2023/04/19 11:24:04;;;;;;;3.47;1.88;;;16.20;48.00;;;;;;4968851;28;20552;-65
2023/04/19 11:26:30;;;;;;;4.70;2.00;;;16.20;48.00;;;;;;4973059;28;20042;-66
2023/04/19 11:28:55;;;;;;;5.15;1.98;;;16.30;46.60;;;;;;4972288;28;20042;-65
2023/04/19 11:31:22;;;;;;;5.07;2.03;;;16.30;47.00;;;;;;4963914;28;20065;-66
2023/04/19 11:33:48;;;;;;;2.35;1.70;;;16.20;49.30;;;;;;4975895;28;20030;-66
2023/04/19 11:36:14;;;;;;;4.93;2.03;;;16.00;46.00;;;;;;4978114;28;20760;-66
2023/04/19 11:38:40;;;;;;;3.58;1.90;;;16.00;47.60;;;;;;4973248;28;20442;-66
2023/04/19 11:41:06;;;;;;;4.28;2.10;;;16.10;49.10;;;;;;4971551;28;20046;-66
2023/04/19 11:43:36;;;;;;;7.40;2.00;;;16.10;48.70;;;;;;4974308;28;20121;-66
2023/04/19 11:46:07;;;;;;;4.43;1.98;;;16.20;50.50;;;;;;4975354;28;20596;-66
2023/04/19 11:48:33;;;;;;;6.55;2.22;;;16.20;48.90;;;;;;4959454;28;20030;-66
2023/04/19 11:51:00;;;;;;;8.10;2.25;;;16.30;49.20;;;;;;4967387;28;20097;-65
2023/04/19 11:53:27;;;;;;;5.18;1.85;;;16.40;48.50;;;;;;4976617;28;20078;-65
2023/04/19 11:55:55;;;;;;;6.53;1.90;;;16.30;47.30;;;;;;4973979;28;20038;-66
2023/04/19 11:58:43;;;;;;;4.95;2.17;;;16.30;50.00;;;;;;4972128;28;20843;-66
2023/04/19 12:01:11;;;;;;;3.45;2.17;;;16.20;48.40;;;;;;4975451;28;20148;-65
2023/04/19 12:03:52;;;;;;;5.78;1.98;;;16.10;49.00;;;;;;4977221;28;20038;-66
2023/04/19 12:06:26;;;;;;;3.55;1.98;;;15.90;48.20;;;;;;4956571;28;20038;-66
2023/04/19 12:08:54;;;;;;;4.80;1.92;;;15.90;48.70;;;;;;4973970;28;20031;-66
2023/04/19 12:11:23;;;;;;;5.00;1.85;;;15.80;49.40;;;;;;4973459;28;20057;-66
2023/04/19 12:14:09;;;;;;;3.78;1.80;;;15.80;48.40;;;;;;4974110;28;20038;-63
2023/04/19 12:16:35;;;;;;;;;;;15.70;45.70;;;;;;4977566;28;20094;-66
2023/04/19 12:19:12;;;;;;;6.18;1.85;;;15.70;48.10;;;;;;4982577;28;19990;-66
2023/04/19 12:21:38;;;;;;;6.72;2.10;;;15.70;45.30;;;;;;4982528;28;20038;-66
2023/04/19 12:24:05;;;;;;;4.03;2.22;;;15.70;46.20;;;;;;4978425;28;20461;-65
2023/04/19 12:26:31;;;;;;;5.78;2.20;;;15.70;47.50;;;;;;4979928;28;20038;-65
2023/04/19 12:28:58;;;;;;;6.78;2.08;;;15.80;46.70;;;;;;4976987;28;20048;-66
2023/04/19 12:31:24;;;;;;;4.22;2.10;;;15.90;49.60;;;;;;4975152;28;20038;-65
2023/04/19 12:33:50;;;;;;;3.78;1.80;;;16.00;48.50;;;;;;4976050;28;20499;-65
2023/04/19 12:36:16;;;;;;;6.47;2.03;;;16.20;47.00;;;;;;4977131;28;20069;-65
2023/04/19 12:38:42;;;;;;;5.57;2.55;;;16.30;49.10;;;;;;4977138;28;20034;-65
2023/04/19 12:41:08;;;;;;;3.70;1.67;;;16.40;50.60;;;;;;4972156;28;20041;-66
2023/04/19 12:43:33;;;;;;;3.35;2.00;;;16.70;50.60;;;;;;4975811;28;20567;-66
2023/04/19 12:46:00;;;;;;;5.20;1.70;;;16.80;47.10;;;;;;4970690;28;20034;-66
2023/04/19 12:48:26;;;;;;;4.03;2.08;;;16.70;45.90;;;;;;4970165;28;20022;-63
2023/04/19 12:50:52;;;;;;;4.88;1.83;;;16.70;47.10;;;;;;4972672;28;20065;-65
2023/04/19 12:53:18;;;;;;;4.15;1.80;;;16.70;48.10;;;;;;4979185;28;20032;-66
2023/04/19 12:55:46;;;;;;;7.20;2.78;;;16.70;48.40;;;;;;4978839;28;20690;-65
2023/04/19 12:58:16;;;;;;;5.35;2.08;;;16.80;49.10;;;;;;4973810;28;20030;-65